Time;durP1;ratioP1;P1;durP2;ratioP2;P2;SDS_P1;SDS_P2;PMS_P1;PMS_P2;Temp;Humidity;BMP_temperature;BMP_pressure;BME280_temperature;BME280_humidity;BME280_pressure;Samples;Min_cycle;Max_cycle;Signal;HPM_P1;HPM_P2
2022/10/14 00:01:30;;;;;;;18.17;14.50;;;;;;;14.70;100.00;98360.00;5193167;22;20572;-93
2022/10/14 00:03:33;;;;;;;15.10;13.20;;;;;;;14.71;100.00;98361.66;5219270;22;20594;-93
2022/10/14 00:05:40;;;;;;;19.33;13.73;;;;;;;14.72;100.00;98355.47;5193741;22;20580;-93
2022/10/14 00:07:45;;;;;;;13.70;12.30;;;;;;;14.74;100.00;98363.22;5219518;22;20564;-93
2022/10/14 00:09:48;;;;;;;18.13;13.87;;;;;;;14.71;100.00;98364.28;5218909;22;20583;-93
2022/10/14 00:11:52;;;;;;;17.27;13.33;;;;;;;14.72;100.00;98368.59;5218575;22;21151;-93
2022/10/14 00:13:56;;;;;;;19.00;13.73;;;;;;;14.70;100.00;98362.63;5219164;22;20964;-93
2022/10/14 00:16:01;;;;;;;16.13;12.53;;;;;;;14.72;100.00;98360.72;5218567;22;20650;-94
2022/10/14 00:18:04;;;;;;;17.20;14.00;;;;;;;14.71;100.00;98366.91;5218740;22;20579;-93
2022/10/14 00:20:08;;;;;;;18.37;14.73;;;;;;;14.67;100.00;98349.75;5219392;22;20637;-93
2022/10/14 00:22:11;;;;;;;15.23;12.60;;;;;;;14.67;100.00;98367.28;5218767;22;20589;-93
2022/10/14 00:24:16;;;;;;;17.27;13.27;;;;;;;14.67;100.00;98360.25;5218506;22;20567;-93
2022/10/14 00:26:21;;;;;;;15.10;13.50;;;;;;;14.66;100.00;98363.81;5219117;22;20578;-93
2022/10/14 00:28:24;;;;;;;16.60;13.13;;;;;;;14.64;100.00;98360.50;5192832;22;20890;-93
2022/10/14 00:30:27;;;;;;;15.03;13.43;;;;;;;14.64;100.00;98360.50;5218811;22;20604;-93
2022/10/14 00:32:36;;;;;;;19.17;13.97;;;;;;;14.64;100.00;98360.50;5193744;22;20675;-92
2022/10/14 00:34:39;;;;;;;20.70;13.63;;;;;;;14.63;100.00;98361.44;5192730;22;20993;-93
2022/10/14 00:36:42;;;;;;;16.33;13.50;;;;;;;14.59;100.00;98354.75;5218375;22;20622;-93
2022/10/14 00:38:51;;;;;;;15.93;13.17;;;;;;;14.59;100.00;98360.00;5219133;22;20570;-93
2022/10/14 00:40:55;;;;;;;16.90;13.83;;;;;;;14.57;100.00;98350.63;5218679;22;20656;-93
2022/10/14 00:42:58;;;;;;;16.90;13.57;;;;;;;14.58;100.00;98346.19;5218515;22;20589;-94
2022/10/14 00:45:09;;;;;;;16.23;14.03;;;;;;;14.59;100.00;98333.75;5218460;22;20647;-93
2022/10/14 00:47:12;;;;;;;25.00;15.80;;;;;;;14.61;100.00;98346.75;5193764;22;20579;-93
2022/10/14 00:49:20;;;;;;;28.13;15.40;;;;;;;14.61;100.00;98341.50;5218345;22;20580;-93
2022/10/14 00:51:23;;;;;;;16.67;13.00;;;;;;;14.60;100.00;98351.19;5218423;22;20579;-93
2022/10/14 00:53:26;;;;;;;13.07;11.77;;;;;;;14.59;100.00;98342.63;5218601;22;20580;-93
2022/10/14 00:55:31;;;;;;;18.53;14.70;;;;;;;14.59;100.00;98343.44;5246368;22;20663;-92
2022/10/14 00:57:36;;;;;;;19.40;15.20;;;;;;;14.57;100.00;98345.34;5218348;22;20584;-92
2022/10/14 00:59:39;;;;;;;19.30;14.07;;;;;;;14.58;100.00;98346.19;5218293;22;20572;-92
2022/10/14 01:01:42;;;;;;;19.37;14.93;;;;;;;14.60;100.00;98348.56;5217953;22;20588;-92
2022/10/14 01:03:45;;;;;;;23.70;16.73;;;;;;;14.64;100.00;98344.75;5244574;22;20563;-93
2022/10/14 01:05:54;;;;;;;20.90;16.40;;;;;;;14.66;100.00;98348.06;5218077;22;20638;-93
2022/10/14 01:08:03;;;;;;;18.43;15.00;;;;;;;14.70;100.00;98354.75;5218327;22;20585;-92
2022/10/14 01:10:09;;;;;;;18.80;15.30;;;;;;;14.70;100.00;98351.28;5218886;22;20595;-93
2022/10/14 01:12:20;;;;;;;23.53;17.27;;;;;;;14.71;100.00;98348.53;5218239;22;21103;-93
2022/10/14 01:14:33;;;;;;;22.13;16.93;;;;;;;14.69;100.00;98350.44;5244239;22;20578;-92
2022/10/14 01:16:44;;;;;;;20.80;16.07;;;;;;;14.72;100.00;98354.63;5244799;22;20615;-94
2022/10/14 01:18:58;;;;;;;17.43;14.80;;;;;;;14.69;100.00;98355.69;5193220;22;20673;-93
2022/10/14 01:21:10;;;;;;;17.90;13.30;;;;;;;14.65;100.00;98343.78;5218476;22;20576;-92
2022/10/14 01:23:34;;;;;;;19.77;15.07;;;;;;;14.63;100.00;98360.63;5218448;22;20583;-93
2022/10/14 01:25:49;;;;;;;18.17;14.13;;;;;;;14.62;100.00;98348.44;5192633;22;20573;-92
2022/10/14 01:28:05;;;;;;;21.10;14.47;;;;;;;14.62;100.00;98353.69;5218590;22;20597;-93
2022/10/14 01:30:14;;;;;;;15.13;13.40;;;;;;;14.61;100.00;98346.75;5218107;22;20662;-93
2022/10/14 01:32:21;;;;;;;18.07;13.93;;;;;;;14.59;100.00;98342.63;5218785;22;20586;-93
2022/10/14 01:34:28;;;;;;;16.50;13.87;;;;;;;14.60;100.00;98340.69;5218516;22;20966;-93
2022/10/14 01:36:36;;;;;;;17.30;13.60;;;;;;;14.60;100.00;98350.38;5218038;22;20615;-93
2022/10/14 01:38:42;;;;;;;16.73;13.20;;;;;;;14.59;100.00;98339.00;5192422;22;20584;-93
2022/10/14 01:40:49;;;;;;;15.87;14.07;;;;;;;14.57;100.00;98339.25;5192573;22;21176;-93
2022/10/14 01:42:55;;;;;;;16.23;14.40;;;;;;;14.58;100.00;98335.69;5219072;22;20576;-93
2022/10/14 01:45:01;;;;;;;19.60;13.70;;;;;;;14.57;100.00;98337.47;5218076;22;20576;-92
2022/10/14 01:47:06;;;;;;;16.30;13.40;;;;;;;14.57;100.00;98328.75;5218714;22;20572;-93
2022/10/14 01:49:18;;;;;;;17.33;13.53;;;;;;;14.59;100.00;98334.75;5218271;22;20610;-93
2022/10/14 01:51:23;;;;;;;18.80;14.30;;;;;;;14.61;100.00;98328.38;5218752;22;20648;-93
2022/10/14 01:53:30;;;;;;;15.27;13.17;;;;;;;14.62;100.00;98328.25;5192479;22;21281;-93
2022/10/14 01:55:36;;;;;;;19.10;13.73;;;;;;;14.63;100.00;98337.00;5218159;22;20612;-94
2022/10/14 01:57:40;;;;;;;17.20;14.20;;;;;;;14.62;100.00;98333.50;5218061;22;20633;-93
2022/10/14 01:59:44;;;;;;;19.17;14.03;;;;;;;14.63;100.00;98329.94;5218100;22;20603;-93
2022/10/14 02:01:47;;;;;;;18.57;14.20;;;;;;;14.63;100.00;98329.94;5218071;22;20654;-93
2022/10/14 02:03:52;;;;;;;18.13;13.33;;;;;;;14.62;100.00;98323.00;5192462;22;21104;-93
2022/10/14 02:05:59;;;;;;;20.50;14.87;;;;;;;14.60;100.00;98318.88;5217922;22;21143;-93
2022/10/14 02:08:10;;;;;;;15.83;12.97;;;;;;;14.62;100.00;98327.44;5218751;22;20575;-93
2022/10/14 02:10:23;;;;;;;18.00;14.27;;;;;;;14.60;100.00;98327.56;5218132;22;20602;-93
2022/10/14 02:12:32;;;;;;;17.70;14.03;;;;;;;14.59;100.00;98328.50;5192592;22;20576;-93
2022/10/14 02:14:39;;;;;;;23.63;16.70;;;;;;;14.57;100.00;98326.13;5219425;22;20671;-93
2022/10/14 02:16:49;;;;;;;18.50;15.60;;;;;;;14.61;100.00;98331.00;5219400;22;20940;-93
2022/10/14 02:19:00;;;;;;;19.60;14.77;;;;;;;14.63;100.00;98322.06;5193981;22;20556;-93
2022/10/14 02:21:20;;;;;;;21.23;15.40;;;;;;;14.67;100.00;98318.25;5219483;22;20568;-92
2022/10/14 02:23:46;;;;;;;20.00;15.20;;;;;;;14.70;100.00;98323.25;5245417;22;20598;-92
2022/10/14 02:25:51;;;;;;;18.07;14.93;;;;;;;14.69;100.00;98329.44;5219640;22;20584;-93
2022/10/14 02:27:54;;;;;;;22.87;16.57;;;;;;;14.67;100.00;98328.75;5219506;22;20599;-92
2022/10/14 02:29:59;;;;;;;16.27;14.07;;;;;;;14.68;100.00;98326.94;5219527;22;20573;-92
2022/10/14 02:32:05;;;;;;;15.73;14.10;;;;;;;14.68;100.00;98322.53;5194213;22;20588;-92
2022/10/14 02:34:11;;;;;;;17.93;14.20;;;;;;;14.69;100.00;98332.06;5219238;22;20682;-93
2022/10/14 02:36:17;;;;;;;20.40;14.77;;;;;;;14.68;100.00;98319.88;5193665;22;20643;-92
2022/10/14 02:38:20;;;;;;;15.03;13.30;;;;;;;14.68;100.00;98327.78;5219570;22;21100;-92
2022/10/14 02:40:29;;;;;;;18.63;13.87;;;;;;;14.70;100.00;98331.13;5219385;22;20576;-92
2022/10/14 02:42:32;;;;;;;15.73;14.03;;;;;;;14.69;100.00;98324.19;5220295;22;20601;-92
2022/10/14 02:44:38;;;;;;;22.00;16.70;;;;;;;14.71;100.00;98322.28;5219409;22;20583;-93
2022/10/14 02:46:42;;;;;;;17.90;14.73;;;;;;;14.74;100.00;98322.03;5219620;22;20703;-94
2022/10/14 02:48:46;;;;;;;17.70;14.33;;;;;;;14.72;100.00;98318.69;5220230;22;20586;-92
2022/10/14 02:50:50;;;;;;;17.47;14.40;;;;;;;14.74;100.00;98319.41;5219524;22;20568;-93
2022/10/14 02:52:53;;;;;;;16.93;14.33;;;;;;;14.70;100.00;98314.50;5193664;22;20588;-93
2022/10/14 02:54:57;;;;;;;18.47;15.23;;;;;;;14.75;100.00;98320.25;5219471;22;20593;-93
2022/10/14 02:57:00;;;;;;;18.63;14.70;;;;;;;14.77;100.00;98313.06;5219359;22;20639;-93
2022/10/14 02:59:04;;;;;;;21.07;16.83;;;;;;;14.78;100.00;98314.75;5220067;22;20682;-93
2022/10/14 03:01:07;;;;;;;19.37;15.07;;;;;;;14.74;100.00;98311.53;5193731;22;20581;-93
2022/10/14 03:03:11;;;;;;;20.27;16.23;;;;;;;14.77;100.00;98310.44;5219310;22;20581;-92
2022/10/14 03:05:14;;;;;;;22.40;16.23;;;;;;;14.77;100.00;98311.28;5193687;22;21166;-92
2022/10/14 03:07:19;;;;;;;18.20;14.20;;;;;;;14.76;100.00;98304.38;5219251;22;20579;-92
2022/10/14 03:09:25;;;;;;;19.53;14.07;;;;;;;14.76;100.00;98309.63;5244973;22;20924;-92
2022/10/14 03:11:30;;;;;;;20.53;16.10;;;;;;;14.79;100.00;98308.53;5219224;22;20576;-92
2022/10/14 03:13:39;;;;;;;18.20;14.37;;;;;;;14.80;100.00;98311.03;5245899;22;20642;-92
2022/10/14 03:15:42;;;;;;;16.73;14.40;;;;;;;14.81;100.00;98315.31;5219170;22;20586;-92
2022/10/14 03:17:46;;;;;;;18.07;13.97;;;;;;;14.78;100.00;98302.44;5219834;22;20644;-92
2022/10/14 03:19:52;;;;;;;17.23;13.90;;;;;;;14.80;100.00;98304.94;5194321;22;20697;-92
2022/10/14 03:21:56;;;;;;;20.43;14.07;;;;;;;14.75;100.00;98302.69;5219336;22;20562;-92
2022/10/14 03:24:01;;;;;;;20.43;14.10;;;;;;;14.77;100.00;98306.03;5244499;22;20676;-92
2022/10/14 03:26:09;;;;;;;18.70;14.50;;;;;;;14.76;100.00;98293.00;5219597;22;20585;-92
2022/10/14 03:28:18;;;;;;;17.23;14.00;;;;;;;14.78;100.00;98299.81;5244741;22;20579;-92
2022/10/14 03:30:27;;;;;;;18.90;14.03;;;;;;;14.75;100.00;98297.44;5218818;22;20678;-92
2022/10/14 03:32:36;;;;;;;18.03;14.37;;;;;;;14.73;100.00;98291.50;5219042;22;20579;-92
2022/10/14 03:35:12;;;;;;;17.00;13.90;;;;;;;14.77;100.00;98295.50;5184710;22;20616;-92
2022/10/14 03:37:18;;;;;;;16.50;13.87;;;;;;;14.76;100.00;98291.25;5218913;22;20686;-92
2022/10/14 03:39:26;;;;;;;16.10;12.80;;;;;;;14.80;100.00;98291.81;5219764;22;20567;-91
2022/10/14 03:41:36;;;;;;;16.37;13.50;;;;;;;14.79;100.00;98293.63;5193208;22;20642;-92
2022/10/14 03:43:41;;;;;;;18.03;14.33;;;;;;;14.77;100.00;98281.56;5218749;22;21185;-91
2022/10/14 03:45:46;;;;;;;17.40;13.47;;;;;;;14.81;100.00;98286.44;5219772;22;21100;-91
2022/10/14 03:47:52;;;;;;;15.40;13.70;;;;;;;14.78;100.00;98281.44;5218731;22;20908;-91
2022/10/14 03:49:56;;;;;;;18.53;12.47;;;;;;;14.79;100.00;98271.75;5218815;22;20639;-91
2022/10/14 03:52:16;;;;;;;17.83;12.50;;;;;;;14.81;100.00;98275.94;5218661;22;20903;-91
2022/10/14 03:54:27;;;;;;;15.30;12.13;;;;;;;14.81;100.00;98264.59;5218920;22;21155;-91
2022/10/14 03:56:30;;;;;;;18.13;13.07;;;;;;;14.80;100.00;98253.25;5193620;22;20659;-92
2022/10/14 03:58:34;;;;;;;16.07;11.67;;;;;;;14.80;100.00;98258.50;5218524;22;20620;-92
2022/10/14 04:00:42;;;;;;;17.93;12.60;;;;;;;14.77;100.00;98253.50;5218793;22;21081;-92
2022/10/14 04:03:00;;;;;;;15.10;11.80;;;;;;;14.75;100.00;98246.72;5218626;22;20586;-93
2022/10/14 04:05:09;;;;;;;14.20;11.80;;;;;;;14.76;100.00;98253.63;5193425;22;20573;-93
2022/10/14 04:07:13;;;;;;;14.10;11.80;;;;;;;14.72;100.00;98255.69;5193000;22;20620;-93
2022/10/14 04:09:24;;;;;;;17.90;12.60;;;;;;;14.72;100.00;98247.81;5193968;22;20604;-92
2022/10/14 04:12:06;;;;;;;15.93;12.70;;;;;;;14.66;100.00;98239.59;5219562;22;20598;-92
2022/10/14 04:14:34;;;;;;;17.63;13.00;;;;;;;14.62;100.00;98233.75;5219917;22;20607;-92
2022/10/14 04:16:38;;;;;;;18.00;12.53;;;;;;;14.61;100.00;98232.09;5218706;22;20598;-93
2022/10/14 04:18:45;;;;;;;16.10;12.43;;;;;;;14.60;100.00;98230.44;5218672;22;20612;-93
2022/10/14 04:20:54;;;;;;;17.73;13.37;;;;;;;14.59;100.00;98221.84;5218569;22;20573;-93
2022/10/14 04:23:00;;;;;;;13.87;11.70;;;;;;;14.60;100.00;98221.72;5245099;22;20609;-93
2022/10/14 04:25:04;;;;;;;14.73;12.20;;;;;;;14.58;100.00;98218.38;5219070;22;20569;-94
2022/10/14 04:27:09;;;;;;;16.63;11.97;;;;;;;14.55;100.00;98221.25;5245205;22;20579;-94
2022/10/14 04:29:26;;;;;;;12.93;11.57;;;;;;;14.54;100.00;98218.75;5219941;22;21074;-93
2022/10/14 04:31:37;;;;;;;16.10;12.20;;;;;;;14.54;100.00;98211.72;5219125;22;21114;-94
2022/10/14 04:33:40;;;;;;;15.57;11.97;;;;;;;14.57;100.00;98213.25;5219206;22;20585;-93
2022/10/14 04:35:51;;;;;;;18.90;12.10;;;;;;;14.57;100.00;98214.09;5244210;22;20582;-94
2022/10/14 04:38:00;;;;;;;14.10;11.93;;;;;;;14.59;100.00;98217.44;5218363;22;20668;-93
2022/10/14 04:40:05;;;;;;;17.00;11.77;;;;;;;14.58;100.00;98207.06;5218590;22;21141;-93
2022/10/14 04:42:17;;;;;;;19.40;11.53;;;;;;;14.59;100.00;98212.19;5218546;22;20576;-94
2022/10/14 04:44:24;;;;;;;14.90;12.70;;;;;;;14.59;100.00;98211.34;5218426;22;20575;-94
2022/10/14 04:46:30;;;;;;;12.03;10.53;;;;;;;14.59;100.00;98216.59;5219463;22;20619;-94
2022/10/14 04:48:33;;;;;;;12.73;10.70;;;;;;;14.59;100.00;98214.81;5219313;22;20579;-93
2022/10/14 04:50:38;;;;;;;13.97;10.90;;;;;;;14.61;100.00;98210.25;5218881;22;20552;-93
2022/10/14 04:53:01;;;;;;;13.73;10.60;;;;;;;14.64;100.00;98212.63;5218346;22;20570;-93
2022/10/14 04:55:05;;;;;;;11.67;9.80;;;;;;;14.63;100.00;98209.19;5192984;22;20679;-93
2022/10/14 04:57:12;;;;;;;12.73;10.57;;;;;;;14.66;100.00;98202.84;5192875;22;20587;-94
2022/10/14 04:59:22;;;;;;;15.47;10.60;;;;;;;14.66;100.00;98197.59;5192832;22;20616;-93
2022/10/14 05:01:45;;;;;;;12.93;9.93;;;;;;;14.64;100.00;98202.97;5244553;22;20585;-93
2022/10/14 05:03:50;;;;;;;12.93;9.77;;;;;;;14.61;100.00;98186.63;5244351;22;20939;-93
2022/10/14 05:05:53;;;;;;;12.00;9.90;;;;;;;14.64;100.00;98199.50;5218372;22;21230;-93
2022/10/14 05:07:57;;;;;;;11.43;9.70;;;;;;;14.62;100.00;98196.19;5244450;22;20590;-94
2022/10/14 05:10:21;;;;;;;15.60;10.80;;;;;;;14.64;100.00;98197.72;5218352;22;20583;-94
2022/10/14 05:12:25;;;;;;;12.90;10.50;;;;;;;14.64;100.00;98187.22;5244407;22;21152;-93
2022/10/14 05:14:35;;;;;;;11.27;10.07;;;;;;;14.61;100.00;98184.84;5219104;22;20591;-93
2022/10/14 05:16:51;;;;;;;11.80;9.80;;;;;;;14.65;100.00;98186.25;5218362;22;21135;-93
2022/10/14 05:19:02;;;;;;;11.00;9.77;;;;;;;14.66;100.00;98180.03;5218097;22;21028;-94
2022/10/14 05:21:07;;;;;;;11.70;9.17;;;;;;;14.64;100.00;98174.09;5218259;22;20579;-93
2022/10/14 05:23:39;;;;;;;13.60;10.37;;;;;;;14.65;100.00;98175.75;5204529;22;20675;-93
2022/10/14 05:25:42;;;;;;;10.27;9.00;;;;;;;14.65;100.00;98178.38;5192737;22;20581;-93
2022/10/14 05:27:46;;;;;;;12.27;8.73;;;;;;;14.62;100.00;98170.75;5218299;22;20580;-93
2022/10/14 05:29:51;;;;;;;11.03;9.10;;;;;;;14.59;100.00;98163.13;5218106;22;20571;-93
2022/10/14 05:31:54;;;;;;;11.13;8.47;;;;;;;14.60;100.00;98164.81;5192470;22;20581;-93
2022/10/14 05:34:23;;;;;;;8.93;7.90;;;;;;;14.61;100.00;98165.63;5220079;22;21138;-93
2022/10/14 05:36:26;;;;;;;14.93;8.17;;;;;;;14.60;100.00;98161.34;5218208;22;20678;-93
2022/10/14 05:38:31;;;;;;;10.20;7.60;;;;;;;14.59;100.00;98154.44;5244143;22;20610;-93
2022/10/14 05:40:34;;;;;;;8.60;7.60;;;;;;;14.60;100.00;98150.84;5192774;22;20598;-93
2022/10/14 05:42:38;;;;;;;10.23;8.50;;;;;;;14.60;100.00;98156.09;5218244;22;21111;-94
2022/10/14 05:44:41;;;;;;;12.40;8.97;;;;;;;14.59;100.00;98155.25;5192607;22;20583;-93
2022/10/14 05:46:46;;;;;;;14.90;8.93;;;;;;;14.56;100.00;98146.81;5192469;22;20614;-93
2022/10/14 05:48:50;;;;;;;11.70;9.97;;;;;;;14.57;100.00;98147.63;5245618;22;20962;-93
2022/10/14 05:50:53;;;;;;;12.83;10.80;;;;;;;14.59;100.00;98149.19;5194285;22;20579;-93
2022/10/14 05:53:00;;;;;;;12.43;10.83;;;;;;;14.60;100.00;98150.84;5220166;22;21076;-94
2022/10/14 05:55:11;;;;;;;12.90;10.83;;;;;;;14.58;100.00;98157.19;5220134;22;20592;-94
2022/10/14 05:57:15;;;;;;;13.57;10.90;;;;;;;14.60;100.00;98156.09;5219971;22;20603;-94
2022/10/14 05:59:18;;;;;;;12.97;11.47;;;;;;;14.59;100.00;98153.59;5220528;22;20655;-94
2022/10/14 06:01:22;;;;;;;14.20;11.70;;;;;;;14.59;100.00;98157.88;5245732;22;21200;-94
2022/10/14 06:03:27;;;;;;;11.73;10.53;;;;;;;14.59;100.00;98156.22;5220204;22;20591;-94
2022/10/14 06:05:31;;;;;;;18.97;12.20;;;;;;;14.59;100.00;98160.50;5194245;22;20630;-94
2022/10/14 06:07:35;;;;;;;16.13;14.30;;;;;;;14.56;100.00;98159.09;5194080;22;20599;-95
2022/10/14 06:09:38;;;;;;;20.53;13.53;;;;;;;14.58;100.00;98165.88;5220246;22;20626;-94
2022/10/14 06:11:42;;;;;;;17.47;14.20;;;;;;;14.59;100.00;98164.09;5194195;22;20932;-94
2022/10/14 06:13:45;;;;;;;19.40;14.90;;;;;;;14.55;100.00;98163.50;5220360;22;20618;-94
2022/10/14 06:15:48;;;;;;;17.80;14.83;;;;;;;14.54;100.00;98155.75;5219685;22;20571;-94
2022/10/14 06:17:51;;;;;;;17.77;14.60;;;;;;;14.57;100.00;98155.50;5219579;22;20622;-93
2022/10/14 06:19:56;;;;;;;19.53;15.13;;;;;;;14.58;100.00;98147.50;5194056;22;21171;-94
2022/10/14 06:21:59;;;;;;;21.40;14.63;;;;;;;14.63;100.00;98158.47;5219444;22;20587;-94
2022/10/14 06:24:03;;;;;;;17.37;13.70;;;;;;;14.62;100.00;98157.63;5220536;22;20704;-93
2022/10/14 06:26:08;;;;;;;19.93;13.70;;;;;;;14.64;100.00;98155.72;5194011;22;20626;-94
2022/10/14 06:28:11;;;;;;;17.77;13.70;;;;;;;14.65;100.00;98153.91;5219968;22;20604;-94
2022/10/14 06:30:15;;;;;;;17.17;13.87;;;;;;;14.67;100.00;98160.72;5219693;22;21136;-93
2022/10/14 06:32:18;;;;;;;14.50;12.97;;;;;;;14.72;100.00;98170.84;5193648;22;20913;-93
2022/10/14 06:34:22;;;;;;;19.10;15.60;;;;;;;14.72;100.00;98161.16;5219296;22;20595;-94
2022/10/14 06:36:27;;;;;;;15.53;13.93;;;;;;;14.73;100.00;98165.47;5220393;22;20571;-93
2022/10/14 06:38:30;;;;;;;17.90;14.10;;;;;;;14.72;100.00;98170.84;5219875;22;20621;-92
2022/10/14 06:40:33;;;;;;;20.10;15.50;;;;;;;14.74;100.00;98171.53;5193863;22;21158;-94
2022/10/14 06:42:37;;;;;;;18.30;14.77;;;;;;;14.76;100.00;98162.56;5245273;22;20912;-93
2022/10/14 06:44:40;;;;;;;16.67;14.33;;;;;;;14.78;100.00;98168.53;5245411;22;20918;-93
2022/10/14 06:46:44;;;;;;;23.27;15.70;;;;;;;14.80;100.00;98163.97;5219958;22;20579;-93
2022/10/14 06:48:47;;;;;;;15.53;13.63;;;;;;;14.80;100.00;98165.78;5220317;22;20583;-93
2022/10/14 06:50:52;;;;;;;19.87;14.60;;;;;;;14.78;100.00;98165.91;5244988;22;20616;-93
2022/10/14 06:52:57;;;;;;;15.73;13.50;;;;;;;14.81;100.00;98172.69;5244964;22;20666;-93
2022/10/14 06:55:00;;;;;;;21.77;12.13;;;;;;;14.82;100.00;98169.91;5219238;22;20621;-93
2022/10/14 06:57:03;;;;;;;13.63;11.97;;;;;;;14.82;100.00;98172.53;5219245;22;20584;-93
2022/10/14 06:59:06;;;;;;;15.80;12.87;;;;;;;14.83;100.00;98176.00;5218678;22;20615;-93
2022/10/14 07:01:10;;;;;;;16.50;12.90;;;;;;;14.84;100.00;98178.50;5193466;22;20634;-93
2022/10/14 07:03:13;;;;;;;15.30;11.80;;;;;;;14.85;100.00;98172.28;5193455;22;21231;-92
2022/10/14 07:05:16;;;;;;;13.20;11.20;;;;;;;14.87;100.00;98170.38;5193997;22;20585;-92
2022/10/14 07:07:19;;;;;;;17.53;12.80;;;;;;;14.90;100.00;98170.13;5219153;22;20708;-92
2022/10/14 07:09:24;;;;;;;17.77;13.43;;;;;;;14.94;100.00;98170.69;5219086;22;20586;-92
2022/10/14 07:11:27;;;;;;;17.33;12.60;;;;;;;14.97;100.00;98171.25;5219304;22;20548;-93
2022/10/14 07:13:30;;;;;;;16.20;12.70;;;;;;;15.00;100.00;98171.00;5219689;22;20992;-93
2022/10/14 07:15:33;;;;;;;15.43;13.60;;;;;;;15.07;100.00;98174.78;5193648;22;20580;-92
2022/10/14 07:17:38;;;;;;;14.33;12.57;;;;;;;15.11;100.00;98171.75;5219145;22;20625;-92
2022/10/14 07:19:41;;;;;;;14.80;11.90;;;;;;;15.18;100.00;98179.97;5219098;22;20604;-92
2022/10/14 07:21:45;;;;;;;16.80;13.13;;;;;;;15.21;100.00;98175.28;5219118;22;20615;-93
2022/10/14 07:23:48;;;;;;;15.17;12.00;;;;;;;15.24;100.00;98175.03;5219103;22;20571;-93
2022/10/14 07:25:55;;;;;;;13.60;11.57;;;;;;;15.28;100.00;98170.34;5219920;22;20575;-92
2022/10/14 07:27:59;;;;;;;15.40;13.57;;;;;;;15.31;100.00;98173.53;5219051;22;21126;-92
2022/10/14 07:30:02;;;;;;;16.00;13.60;;;;;;;15.37;100.00;98175.66;5219085;22;20568;-93
2022/10/14 07:32:05;;;;;;;26.50;17.67;;;;;;;15.42;100.00;98188.41;5218857;22;20584;-92
2022/10/14 07:34:09;;;;;;;18.27;13.30;;;;;;;15.43;100.00;98169.03;5219170;22;20643;-92
2022/10/14 07:36:14;;;;;;;20.43;16.20;;;;;;;15.44;100.00;98168.06;5193252;22;20712;-92
2022/10/14 07:38:23;;;;;;;14.73;12.20;;;;;;;15.44;100.00;98170.69;5244775;22;20610;-92
2022/10/14 07:40:27;;;;;;;32.30;21.83;;;;;;;15.49;100.00;98168.50;5192991;22;20609;-92
2022/10/14 07:42:31;;;;;;;16.00;12.67;;;;;;;15.52;100.00;98173.50;5218746;22;20586;-92
2022/10/14 07:44:35;;;;;;;13.50;10.77;;;;;;;15.51;100.00;98177.09;5219244;22;20584;-92
2022/10/14 07:46:41;;;;;;;15.60;12.33;;;;;;;15.55;100.00;98178.50;5193132;22;20582;-93
2022/10/14 07:48:45;;;;;;;15.87;12.30;;;;;;;15.54;100.00;98176.81;5219789;22;20581;-92
2022/10/14 07:50:59;;;;;;;15.07;13.20;;;;;;;15.57;100.00;98180.88;5218807;22;20616;-92
2022/10/14 07:53:02;;;;;;;15.67;12.93;;;;;;;15.53;100.00;98180.41;5218681;22;20622;-92
2022/10/14 07:55:07;;;;;;;13.73;11.80;;;;;;;15.49;100.00;98177.22;5219467;22;20587;-92
2022/10/14 07:57:10;;;;;;;16.80;11.97;;;;;;;15.51;100.00;98187.59;5218600;22;20586;-92
2022/10/14 07:59:15;;;;;;;16.47;13.30;;;;;;;15.52;100.00;98179.59;5219634;22;20584;-92
2022/10/14 08:01:18;;;;;;;14.63;11.73;;;;;;;15.61;100.00;98187.50;5218550;22;20662;-92
2022/10/14 08:03:23;;;;;;;16.03;12.33;;;;;;;15.72;100.00;98186.56;5218838;22;20687;-92
2022/10/14 08:05:26;;;;;;;16.33;12.30;;;;;;;15.81;100.00;98181.31;5192827;22;20601;-92
2022/10/14 08:07:44;;;;;;;15.53;11.87;;;;;;;15.92;100.00;98178.59;5218749;22;20970;-92
2022/10/14 08:09:47;;;;;;;20.33;15.33;;;;;;;16.01;100.00;98184.84;5218449;22;21157;-92
2022/10/14 08:11:51;;;;;;;23.47;17.20;;;;;;;16.03;100.00;98178.47;5192865;22;20585;-92
2022/10/14 08:13:54;;;;;;;13.80;11.50;;;;;;;16.07;100.00;98175.44;5218453;22;20651;-92
2022/10/14 08:15:59;;;;;;;13.00;10.73;;;;;;;16.14;100.00;98181.81;5218346;22;20580;-91
2022/10/14 08:18:02;;;;;;;13.50;12.00;;;;;;;16.18;100.00;98180.56;5218375;22;20612;-91
2022/10/14 08:20:06;;;;;;;16.97;11.93;;;;;;;16.25;100.00;98186.16;5218774;22;20601;-91
2022/10/14 08:22:10;;;;;;;15.07;11.77;;;;;;;16.38;100.00;98186.72;5192803;22;20677;-91
2022/10/14 08:24:13;;;;;;;15.40;11.83;;;;;;;16.50;100.00;98195.16;5218400;22;20576;-92
2022/10/14 08:26:20;;;;;;;13.33;10.90;;;;;;;16.58;100.00;98179.53;5218115;22;20616;-91
2022/10/14 08:28:25;;;;;;;15.30;11.20;;;;;;;16.69;100.00;98187.28;5218378;22;20883;-91
2022/10/14 08:30:28;;;;;;;14.73;9.93;;;;;;;16.76;100.00;98180.47;5218269;22;21124;-91
2022/10/14 08:32:33;;;;;;;14.10;10.67;;;;;;;16.78;100.00;98178.53;5244335;22;20588;-89
2022/10/14 08:34:36;;;;;;;10.40;8.70;;;;;;;16.80;100.00;98176.59;5244029;22;20595;-90
2022/10/14 08:36:39;;;;;;;12.57;9.10;;;;;;;16.79;100.00;98174.09;5245605;22;20580;-90
2022/10/14 08:38:45;;;;;;;10.40;7.87;;;;;;;16.83;100.00;98176.31;5192702;22;20626;-90
2022/10/14 08:40:56;;;;;;;9.90;7.13;;;;;;;16.90;100.00;98174.78;5218212;22;20594;-90
2022/10/14 08:43:01;;;;;;;10.87;7.50;;;;;;;16.98;99.60;98167.81;5245678;22;20619;-90
2022/10/14 08:45:09;;;;;;;8.40;6.80;;;;;;;17.02;98.05;98174.47;5192569;22;20681;-90
2022/10/14 08:47:14;;;;;;;10.30;6.90;;;;;;;17.04;97.38;98166.41;5244348;22;20561;-90
2022/10/14 08:49:24;;;;;;;9.73;6.97;;;;;;;17.05;95.82;98162.81;5244062;22;20584;-90
2022/10/14 08:51:30;;;;;;;7.97;6.70;;;;;;;16.99;94.87;98160.75;5245805;22;20589;-90
2022/10/14 08:53:38;;;;;;;12.00;7.07;;;;;;;17.00;94.67;98165.03;5218405;22;20570;-90
2022/10/14 08:55:44;;;;;;;7.90;6.60;;;;;;;16.98;94.24;98158.25;5218361;22;20585;-91
2022/10/14 08:57:50;;;;;;;11.57;7.00;;;;;;;16.95;94.58;98162.00;5192665;22;20638;-92
2022/10/14 08:59:54;;;;;;;12.57;7.50;;;;;;;16.96;94.48;98158.41;5218182;22;21132;-91
2022/10/14 09:02:00;;;;;;;9.43;7.23;;;;;;;16.98;94.24;98161.72;5218232;22;20617;-90
2022/10/14 09:04:06;;;;;;;9.50;6.10;;;;;;;17.04;95.26;98163.78;5244806;22;20933;-90
2022/10/14 09:06:15;;;;;;;11.40;8.53;;;;;;;17.09;94.73;98156.28;5218076;22;20606;-90
2022/10/14 09:08:20;;;;;;;8.07;6.90;;;;;;;17.12;96.34;98143.66;5244156;22;20576;-92
2022/10/14 09:10:27;;;;;;;8.07;6.70;;;;;;;17.17;96.15;98143.19;5192506;22;20570;-91
2022/10/14 09:12:32;;;;;;;13.13;6.70;;;;;;;17.16;94.75;98145.00;5218216;22;21149;-91
2022/10/14 09:14:37;;;;;;;9.60;6.80;;;;;;;17.16;94.67;98149.47;5192549;22;20662;-90
2022/10/14 09:16:44;;;;;;;8.00;5.90;;;;;;;17.14;93.03;98151.41;5218234;22;20581;-91
2022/10/14 09:18:53;;;;;;;11.73;6.60;;;;;;;17.11;93.09;98141.16;5218209;22;20582;-91
2022/10/14 09:20:58;;;;;;;9.30;6.73;;;;;;;17.11;92.92;98141.16;5192463;22;20677;-92
2022/10/14 09:23:14;;;;;;;9.27;6.30;;;;;;;17.06;93.21;98146.88;5219125;22;20581;-91
2022/10/14 09:25:17;;;;;;;9.37;6.67;;;;;;;17.04;92.25;98140.06;5219956;22;20577;-91
2022/10/14 09:27:22;;;;;;;11.20;6.53;;;;;;;16.99;91.77;98122.03;5219937;22;21166;-92
2022/10/14 09:29:27;;;;;;;18.73;6.30;;;;;;;17.04;91.75;98134.78;5220592;22;20691;-91
2022/10/14 09:31:31;;;;;;;10.83;6.80;;;;;;;17.04;92.58;98130.34;5219906;22;20585;-92
2022/10/14 09:33:38;;;;;;;7.37;6.23;;;;;;;17.06;92.69;98131.06;5219792;22;20584;-92
2022/10/14 09:35:44;;;;;;;8.47;6.50;;;;;;;17.05;92.21;98134.66;5219750;22;20587;-91
2022/10/14 09:37:48;;;;;;;7.97;6.80;;;;;;;17.03;93.69;98126.06;5194133;22;20578;-93